sensor_id;sensor_type;location;lat;lon;timestamp;temperature;humidity
47546;DHT22;50104;52.002;4.688;2023-06-22T00:01:11;20.90;68.30
47546;DHT22;50104;52.002;4.688;2023-06-22T00:06:12;20.80;68.60
47546;DHT22;50104;52.002;4.688;2023-06-22T00:11:13;20.70;68.80
47546;DHT22;50104;52.002;4.688;2023-06-22T00:16:14;20.70;68.80
47546;DHT22;50104;52.002;4.688;2023-06-22T00:21:15;20.60;68.90
47546;DHT22;50104;52.002;4.688;2023-06-22T00:26:15;20.50;69.00
47546;DHT22;50104;52.002;4.688;2023-06-22T00:31:17;20.40;69.00
47546;DHT22;50104;52.002;4.688;2023-06-22T00:36:18;20.40;69.20
47546;DHT22;50104;52.002;4.688;2023-06-22T00:41:19;20.30;69.30
47546;DHT22;50104;52.002;4.688;2023-06-22T00:46:21;20.20;69.50
47546;DHT22;50104;52.002;4.688;2023-06-22T00:51:23;20.20;69.80
47546;DHT22;50104;52.002;4.688;2023-06-22T00:56:24;20.10;70.10
47546;DHT22;50104;52.002;4.688;2023-06-22T01:01:25;20.00;70.50
47546;DHT22;50104;52.002;4.688;2023-06-22T01:06:44;19.90;70.50
47546;DHT22;50104;52.002;4.688;2023-06-22T01:11:58;19.90;70.60
47546;DHT22;50104;52.002;4.688;2023-06-22T01:17:01;19.80;70.80
47546;DHT22;50104;52.002;4.688;2023-06-22T01:22:03;19.70;70.90
47546;DHT22;50104;52.002;4.688;2023-06-22T01:32:47;19.60;71.60
47546;DHT22;50104;52.002;4.688;2023-06-22T01:37:49;19.60;71.40
47546;DHT22;50104;52.002;4.688;2023-06-22T01:42:50;19.50;71.70
47546;DHT22;50104;52.002;4.688;2023-06-22T01:47:51;19.40;71.90
47546;DHT22;50104;52.002;4.688;2023-06-22T01:52:52;19.40;72.00
47546;DHT22;50104;52.002;4.688;2023-06-22T01:57:53;19.30;72.10
47546;DHT22;50104;52.002;4.688;2023-06-22T02:02:59;19.30;72.30
47546;DHT22;50104;52.002;4.688;2023-06-22T02:08:17;19.20;72.50
47546;DHT22;50104;52.002;4.688;2023-06-22T02:13:24;19.20;72.90
47546;DHT22;50104;52.002;4.688;2023-06-22T02:18:25;19.10;72.70
47546;DHT22;50104;52.002;4.688;2023-06-22T02:23:26;19.00;72.90
47546;DHT22;50104;52.002;4.688;2023-06-22T02:28:27;19.00;73.10
47546;DHT22;50104;52.002;4.688;2023-06-22T02:33:28;18.90;73.50
47546;DHT22;50104;52.002;4.688;2023-06-22T02:38:29;18.90;73.80
47546;DHT22;50104;52.002;4.688;2023-06-22T02:43:33;18.80;73.90
47546;DHT22;50104;52.002;4.688;2023-06-22T02:48:35;18.80;74.00
47546;DHT22;50104;52.002;4.688;2023-06-22T02:53:36;18.70;74.10
47546;DHT22;50104;52.002;4.688;2023-06-22T02:58:36;18.70;74.40
47546;DHT22;50104;52.002;4.688;2023-06-22T03:03:39;18.60;74.50
47546;DHT22;50104;52.002;4.688;2023-06-22T03:08:39;18.60;74.50
47546;DHT22;50104;52.002;4.688;2023-06-22T03:13:41;18.60;74.80
47546;DHT22;50104;52.002;4.688;2023-06-22T03:18:42;18.50;74.80
47546;DHT22;50104;52.002;4.688;2023-06-22T03:23:43;18.50;75.10
47546;DHT22;50104;52.002;4.688;2023-06-22T03:28:44;18.50;75.40
47546;DHT22;50104;52.002;4.688;2023-06-22T03:33:45;18.50;75.70
47546;DHT22;50104;52.002;4.688;2023-06-22T03:38:46;18.50;75.90
47546;DHT22;50104;52.002;4.688;2023-06-22T03:43:48;18.50;76.10
47546;DHT22;50104;52.002;4.688;2023-06-22T03:48:48;18.50;76.20
47546;DHT22;50104;52.002;4.688;2023-06-22T03:53:49;18.40;76.40
47546;DHT22;50104;52.002;4.688;2023-06-22T03:58:50;18.40;76.40
47546;DHT22;50104;52.002;4.688;2023-06-22T04:03:51;18.40;76.80
47546;DHT22;50104;52.002;4.688;2023-06-22T04:08:53;18.40;77.00
47546;DHT22;50104;52.002;4.688;2023-06-22T04:13:53;18.40;77.00
47546;DHT22;50104;52.002;4.688;2023-06-22T04:18:54;18.40;77.20
47546;DHT22;50104;52.002;4.688;2023-06-22T04:23:55;18.40;77.20
47546;DHT22;50104;52.002;4.688;2023-06-22T04:28:56;18.40;77.20
47546;DHT22;50104;52.002;4.688;2023-06-22T04:33:56;18.50;77.50
47546;DHT22;50104;52.002;4.688;2023-06-22T04:38:57;18.50;77.60
47546;DHT22;50104;52.002;4.688;2023-06-22T04:43:58;18.50;77.60
47546;DHT22;50104;52.002;4.688;2023-06-22T04:49:00;18.50;77.70
47546;DHT22;50104;52.002;4.688;2023-06-22T04:54:01;18.60;77.70
47546;DHT22;50104;52.002;4.688;2023-06-22T04:59:02;18.60;77.60
47546;DHT22;50104;52.002;4.688;2023-06-22T05:04:03;18.70;77.60
47546;DHT22;50104;52.002;4.688;2023-06-22T05:09:07;18.70;77.00
47546;DHT22;50104;52.002;4.688;2023-06-22T05:14:07;18.80;77.40
47546;DHT22;50104;52.002;4.688;2023-06-22T05:19:09;18.80;77.40
47546;DHT22;50104;52.002;4.688;2023-06-22T05:24:10;18.90;77.40
47546;DHT22;50104;52.002;4.688;2023-06-22T05:29:10;19.00;77.00
47546;DHT22;50104;52.002;4.688;2023-06-22T05:34:11;19.00;77.20
47546;DHT22;50104;52.002;4.688;2023-06-22T05:39:13;19.10;77.40
47546;DHT22;50104;52.002;4.688;2023-06-22T05:44:15;19.20;77.50
47546;DHT22;50104;52.002;4.688;2023-06-22T05:49:16;19.30;77.70
47546;DHT22;50104;52.002;4.688;2023-06-22T05:54:17;19.40;77.70
47546;DHT22;50104;52.002;4.688;2023-06-22T05:59:18;19.60;77.30
47546;DHT22;50104;52.002;4.688;2023-06-22T06:04:19;19.70;77.70
47546;DHT22;50104;52.002;4.688;2023-06-22T06:09:20;19.90;77.80
47546;DHT22;50104;52.002;4.688;2023-06-22T06:14:21;20.00;78.00
47546;DHT22;50104;52.002;4.688;2023-06-22T06:19:22;20.20;77.10
47546;DHT22;50104;52.002;4.688;2023-06-22T06:24:23;20.30;77.30
47546;DHT22;50104;52.002;4.688;2023-06-22T06:29:23;20.50;77.70
47546;DHT22;50104;52.002;4.688;2023-06-22T06:34:24;20.60;77.60
47546;DHT22;50104;52.002;4.688;2023-06-22T06:39:25;20.70;77.50
47546;DHT22;50104;52.002;4.688;2023-06-22T06:44:26;20.90;77.20
47546;DHT22;50104;52.002;4.688;2023-06-22T06:49:27;21.00;77.00
47546;DHT22;50104;52.002;4.688;2023-06-22T06:54:28;21.20;77.10
47546;DHT22;50104;52.002;4.688;2023-06-22T06:59:29;21.40;76.40
47546;DHT22;50104;52.002;4.688;2023-06-22T07:04:30;21.70;75.50
47546;DHT22;50104;52.002;4.688;2023-06-22T07:09:31;21.90;74.70
47546;DHT22;50104;52.002;4.688;2023-06-22T07:14:32;22.10;74.70
47546;DHT22;50104;52.002;4.688;2023-06-22T07:19:33;22.40;73.50
47546;DHT22;50104;52.002;4.688;2023-06-22T07:24:34;22.70;74.20
47546;DHT22;50104;52.002;4.688;2023-06-22T07:29:35;23.00;72.10
47546;DHT22;50104;52.002;4.688;2023-06-22T07:34:36;23.40;71.70
47546;DHT22;50104;52.002;4.688;2023-06-22T07:39:37;23.80;70.20
47546;DHT22;50104;52.002;4.688;2023-06-22T07:44:38;24.20;68.60
47546;DHT22;50104;52.002;4.688;2023-06-22T07:49:39;24.60;68.00
47546;DHT22;50104;52.002;4.688;2023-06-22T07:54:40;24.90;67.50
47546;DHT22;50104;52.002;4.688;2023-06-22T07:59:40;25.20;66.90
47546;DHT22;50104;52.002;4.688;2023-06-22T08:04:41;25.50;65.90
47546;DHT22;50104;52.002;4.688;2023-06-22T08:09:47;25.70;66.10
47546;DHT22;50104;52.002;4.688;2023-06-22T08:14:48;25.90;65.70
47546;DHT22;50104;52.002;4.688;2023-06-22T08:19:50;26.20;66.00
47546;DHT22;50104;52.002;4.688;2023-06-22T08:24:50;26.30;65.80
47546;DHT22;50104;52.002;4.688;2023-06-22T08:29:51;26.50;66.20
47546;DHT22;50104;52.002;4.688;2023-06-22T08:34:57;26.70;66.90
47546;DHT22;50104;52.002;4.688;2023-06-22T08:39:59;27.00;66.00
47546;DHT22;50104;52.002;4.688;2023-06-22T08:45:01;27.20;66.90
47546;DHT22;50104;52.002;4.688;2023-06-22T08:50:02;27.40;67.00
47546;DHT22;50104;52.002;4.688;2023-06-22T08:55:04;27.50;66.70
47546;DHT22;50104;52.002;4.688;2023-06-22T09:00:07;27.70;66.60
47546;DHT22;50104;52.002;4.688;2023-06-22T09:05:20;27.90;66.10
47546;DHT22;50104;52.002;4.688;2023-06-22T09:10:22;28.00;63.90
47546;DHT22;50104;52.002;4.688;2023-06-22T09:15:23;28.10;64.10
47546;DHT22;50104;52.002;4.688;2023-06-22T09:20:24;28.20;64.10
47546;DHT22;50104;52.002;4.688;2023-06-22T09:25:24;28.30;63.60
47546;DHT22;50104;52.002;4.688;2023-06-22T09:30:25;28.30;64.10
47546;DHT22;50104;52.002;4.688;2023-06-22T09:35:26;28.40;63.60
47546;DHT22;50104;52.002;4.688;2023-06-22T09:40:27;28.50;63.30
47546;DHT22;50104;52.002;4.688;2023-06-22T09:45:28;28.50;62.90
47546;DHT22;50104;52.002;4.688;2023-06-22T09:50:29;28.60;62.50
47546;DHT22;50104;52.002;4.688;2023-06-22T09:55:29;28.70;62.10
47546;DHT22;50104;52.002;4.688;2023-06-22T10:00:30;28.70;61.90
47546;DHT22;50104;52.002;4.688;2023-06-22T10:05:31;28.70;61.90
47546;DHT22;50104;52.002;4.688;2023-06-22T10:10:32;28.80;61.70
47546;DHT22;50104;52.002;4.688;2023-06-22T10:15:33;28.80;61.80
47546;DHT22;50104;52.002;4.688;2023-06-22T10:20:34;28.80;61.90
47546;DHT22;50104;52.002;4.688;2023-06-22T10:25:34;28.80;61.60
47546;DHT22;50104;52.002;4.688;2023-06-22T10:30:36;28.80;61.30
47546;DHT22;50104;52.002;4.688;2023-06-22T10:35:37;28.80;61.20
47546;DHT22;50104;52.002;4.688;2023-06-22T10:40:38;28.80;61.20
47546;DHT22;50104;52.002;4.688;2023-06-22T10:45:40;28.70;60.20
47546;DHT22;50104;52.002;4.688;2023-06-22T10:50:40;28.70;60.90
47546;DHT22;50104;52.002;4.688;2023-06-22T10:55:41;28.60;61.10
47546;DHT22;50104;52.002;4.688;2023-06-22T11:00:42;28.50;61.30
47546;DHT22;50104;52.002;4.688;2023-06-22T11:05:43;28.50;61.60
47546;DHT22;50104;52.002;4.688;2023-06-22T11:10:44;28.40;61.70
47546;DHT22;50104;52.002;4.688;2023-06-22T11:15:44;28.40;61.80
47546;DHT22;50104;52.002;4.688;2023-06-22T11:20:45;28.30;61.90
47546;DHT22;50104;52.002;4.688;2023-06-22T11:25:48;28.30;62.00
47546;DHT22;50104;52.002;4.688;2023-06-22T11:30:48;28.20;61.90
47546;DHT22;50104;52.002;4.688;2023-06-22T11:35:50;28.20;62.00
47546;DHT22;50104;52.002;4.688;2023-06-22T11:40:50;28.10;61.90
47546;DHT22;50104;52.002;4.688;2023-06-22T11:45:51;28.00;62.00
47546;DHT22;50104;52.002;4.688;2023-06-22T11:50:52;27.90;62.10
47546;DHT22;50104;52.002;4.688;2023-06-22T11:55:54;27.90;62.40
47546;DHT22;50104;52.002;4.688;2023-06-22T12:00:55;27.80;62.50
47546;DHT22;50104;52.002;4.688;2023-06-22T12:05:56;27.80;62.70
47546;DHT22;50104;52.002;4.688;2023-06-22T12:10:57;27.70;62.90
47546;DHT22;50104;52.002;4.688;2023-06-22T12:15:58;27.60;63.30
47546;DHT22;50104;52.002;4.688;2023-06-22T12:20:58;27.50;63.70
47546;DHT22;50104;52.002;4.688;2023-06-22T12:25:59;27.40;64.60
47546;DHT22;50104;52.002;4.688;2023-06-22T12:31:02;27.40;64.70
47546;DHT22;50104;52.002;4.688;2023-06-22T12:36:03;27.30;65.10
47546;DHT22;50104;52.002;4.688;2023-06-22T12:41:05;27.20;65.80
47546;DHT22;50104;52.002;4.688;2023-06-22T12:46:06;27.20;65.90
47546;DHT22;50104;52.002;4.688;2023-06-22T12:51:07;27.10;66.30
47546;DHT22;50104;52.002;4.688;2023-06-22T12:56:09;27.10;66.50
47546;DHT22;50104;52.002;4.688;2023-06-22T13:01:09;27.10;67.00
47546;DHT22;50104;52.002;4.688;2023-06-22T13:06:10;27.00;66.80
47546;DHT22;50104;52.002;4.688;2023-06-22T13:11:11;27.00;66.80
47546;DHT22;50104;52.002;4.688;2023-06-22T13:16:12;26.90;67.10
47546;DHT22;50104;52.002;4.688;2023-06-22T13:21:13;26.90;66.90
47546;DHT22;50104;52.002;4.688;2023-06-22T13:26:14;26.80;67.00
47546;DHT22;50104;52.002;4.688;2023-06-22T13:31:15;26.80;67.10
47546;DHT22;50104;52.002;4.688;2023-06-22T13:36:16;26.70;67.20
47546;DHT22;50104;52.002;4.688;2023-06-22T13:41:17;26.60;67.40
47546;DHT22;50104;52.002;4.688;2023-06-22T13:46:21;26.50;67.80
47546;DHT22;50104;52.002;4.688;2023-06-22T13:51:22;26.40;67.80
47546;DHT22;50104;52.002;4.688;2023-06-22T13:56:22;26.30;68.20
47546;DHT22;50104;52.002;4.688;2023-06-22T14:01:23;26.20;68.70
47546;DHT22;50104;52.002;4.688;2023-06-22T14:06:24;26.10;69.00
47546;DHT22;50104;52.002;4.688;2023-06-22T14:11:25;25.90;69.20
47546;DHT22;50104;52.002;4.688;2023-06-22T14:16:26;25.90;69.60
47546;DHT22;50104;52.002;4.688;2023-06-22T14:21:27;25.80;69.50
47546;DHT22;50104;52.002;4.688;2023-06-22T14:26:28;25.70;69.60
47546;DHT22;50104;52.002;4.688;2023-06-22T14:31:28;25.60;69.60
47546;DHT22;50104;52.002;4.688;2023-06-22T14:36:29;25.50;69.70
47546;DHT22;50104;52.002;4.688;2023-06-22T14:41:31;25.50;69.60
47546;DHT22;50104;52.002;4.688;2023-06-22T14:46:31;25.40;69.60
47546;DHT22;50104;52.002;4.688;2023-06-22T14:51:32;25.30;69.50
47546;DHT22;50104;52.002;4.688;2023-06-22T14:56:33;25.20;69.60
47546;DHT22;50104;52.002;4.688;2023-06-22T15:01:34;25.10;69.60
47546;DHT22;50104;52.002;4.688;2023-06-22T15:06:35;25.00;69.70
47546;DHT22;50104;52.002;4.688;2023-06-22T15:11:36;24.90;69.70
47546;DHT22;50104;52.002;4.688;2023-06-22T15:16:36;24.80;69.70
47546;DHT22;50104;52.002;4.688;2023-06-22T15:21:37;24.70;69.70
47546;DHT22;50104;52.002;4.688;2023-06-22T15:26:38;24.60;69.80
47546;DHT22;50104;52.002;4.688;2023-06-22T15:31:39;24.60;69.90
47546;DHT22;50104;52.002;4.688;2023-06-22T15:36:40;24.50;70.10
47546;DHT22;50104;52.002;4.688;2023-06-22T15:41:41;24.40;70.30
47546;DHT22;50104;52.002;4.688;2023-06-22T15:46:42;24.30;70.60
47546;DHT22;50104;52.002;4.688;2023-06-22T15:51:44;24.30;70.60
47546;DHT22;50104;52.002;4.688;2023-06-22T15:56:45;24.20;70.80
47546;DHT22;50104;52.002;4.688;2023-06-22T16:01:45;24.10;71.10
47546;DHT22;50104;52.002;4.688;2023-06-22T16:06:46;24.10;71.10
47546;DHT22;50104;52.002;4.688;2023-06-22T16:11:47;24.00;71.40
47546;DHT22;50104;52.002;4.688;2023-06-22T16:16:48;24.00;71.70
47546;DHT22;50104;52.002;4.688;2023-06-22T16:21:49;23.90;71.80
47546;DHT22;50104;52.002;4.688;2023-06-22T16:26:50;23.90;71.70
47546;DHT22;50104;52.002;4.688;2023-06-22T16:31:51;23.80;71.80
47546;DHT22;50104;52.002;4.688;2023-06-22T16:36:52;23.80;72.00
47546;DHT22;50104;52.002;4.688;2023-06-22T16:41:53;23.80;72.10
47546;DHT22;50104;52.002;4.688;2023-06-22T16:46:54;23.70;72.30
47546;DHT22;50104;52.002;4.688;2023-06-22T16:51:54;23.70;72.50
47546;DHT22;50104;52.002;4.688;2023-06-22T16:57:01;23.60;72.40
47546;DHT22;50104;52.002;4.688;2023-06-22T17:02:03;23.60;72.60
47546;DHT22;50104;52.002;4.688;2023-06-22T17:07:13;23.60;72.70
47546;DHT22;50104;52.002;4.688;2023-06-22T17:12:16;23.50;72.90
47546;DHT22;50104;52.002;4.688;2023-06-22T17:17:23;23.50;72.90
47546;DHT22;50104;52.002;4.688;2023-06-22T17:22:31;23.40;72.90
47546;DHT22;50104;52.002;4.688;2023-06-22T17:27:39;23.40;73.60
47546;DHT22;50104;52.002;4.688;2023-06-22T17:32:45;23.40;73.40
47546;DHT22;50104;52.002;4.688;2023-06-22T17:37:51;23.40;73.40
47546;DHT22;50104;52.002;4.688;2023-06-22T17:43:06;23.40;73.40
47546;DHT22;50104;52.002;4.688;2023-06-22T17:48:08;23.40;73.20
47546;DHT22;50104;52.002;4.688;2023-06-22T17:53:10;23.30;73.20
47546;DHT22;50104;52.002;4.688;2023-06-22T17:58:12;23.30;72.90
47546;DHT22;50104;52.002;4.688;2023-06-22T18:03:15;23.30;73.10
47546;DHT22;50104;52.002;4.688;2023-06-22T18:08:22;23.20;73.30
47546;DHT22;50104;52.002;4.688;2023-06-22T18:13:26;23.20;73.70
47546;DHT22;50104;52.002;4.688;2023-06-22T18:18:28;23.10;73.80
47546;DHT22;50104;52.002;4.688;2023-06-22T18:23:30;23.10;74.10
47546;DHT22;50104;52.002;4.688;2023-06-22T18:28:36;23.00;74.80
47546;DHT22;50104;52.002;4.688;2023-06-22T18:33:38;23.00;74.50
47546;DHT22;50104;52.002;4.688;2023-06-22T18:38:43;23.00;74.50
47546;DHT22;50104;52.002;4.688;2023-06-22T18:43:52;23.00;74.70
47546;DHT22;50104;52.002;4.688;2023-06-22T18:48:59;22.90;74.60
47546;DHT22;50104;52.002;4.688;2023-06-22T18:54:02;22.90;74.90
47546;DHT22;50104;52.002;4.688;2023-06-22T18:59:11;22.90;74.60
47546;DHT22;50104;52.002;4.688;2023-06-22T19:04:15;22.90;74.70
47546;DHT22;50104;52.002;4.688;2023-06-22T19:09:17;22.90;74.20
47546;DHT22;50104;52.002;4.688;2023-06-22T19:14:22;22.90;74.00
47546;DHT22;50104;52.002;4.688;2023-06-22T19:19:23;22.90;73.50
47546;DHT22;50104;52.002;4.688;2023-06-22T19:24:55;22.80;73.10
47546;DHT22;50104;52.002;4.688;2023-06-22T19:30:00;22.80;72.80
47546;DHT22;50104;52.002;4.688;2023-06-22T19:35:03;22.80;72.50
47546;DHT22;50104;52.002;4.688;2023-06-22T19:40:10;22.70;72.40
47546;DHT22;50104;52.002;4.688;2023-06-22T19:45:16;22.60;72.20
47546;DHT22;50104;52.002;4.688;2023-06-22T19:50:17;22.50;72.20
47546;DHT22;50104;52.002;4.688;2023-06-22T19:55:18;22.40;72.20
47546;DHT22;50104;52.002;4.688;2023-06-22T20:00:20;22.30;72.20
47546;DHT22;50104;52.002;4.688;2023-06-22T20:05:22;22.20;72.10
47546;DHT22;50104;52.002;4.688;2023-06-22T20:10:23;22.10;72.20
47546;DHT22;50104;52.002;4.688;2023-06-22T20:15:26;22.00;72.30
47546;DHT22;50104;52.002;4.688;2023-06-22T20:20:29;21.90;72.50
47546;DHT22;50104;52.002;4.688;2023-06-22T20:25:39;21.80;72.40
47546;DHT22;50104;52.002;4.688;2023-06-22T20:31:01;21.70;72.50
47546;DHT22;50104;52.002;4.688;2023-06-22T20:36:06;21.60;72.60
47546;DHT22;50104;52.002;4.688;2023-06-22T20:41:07;21.50;72.70
47546;DHT22;50104;52.002;4.688;2023-06-22T20:46:08;21.50;72.90
47546;DHT22;50104;52.002;4.688;2023-06-22T20:51:09;21.40;73.20
47546;DHT22;50104;52.002;4.688;2023-06-22T20:56:09;21.30;73.30
47546;DHT22;50104;52.002;4.688;2023-06-22T21:01:10;21.30;73.50
47546;DHT22;50104;52.002;4.688;2023-06-22T21:06:35;21.20;73.50
47546;DHT22;50104;52.002;4.688;2023-06-22T21:11:36;21.10;73.80
47546;DHT22;50104;52.002;4.688;2023-06-22T21:16:37;21.10;73.50
47546;DHT22;50104;52.002;4.688;2023-06-22T21:21:38;21.00;73.50
47546;DHT22;50104;52.002;4.688;2023-06-22T21:26:39;21.00;73.40
47546;DHT22;50104;52.002;4.688;2023-06-22T21:31:39;20.90;73.60
47546;DHT22;50104;52.002;4.688;2023-06-22T21:36:40;20.90;73.90
47546;DHT22;50104;52.002;4.688;2023-06-22T21:41:41;20.80;74.60
47546;DHT22;50104;52.002;4.688;2023-06-22T21:46:42;20.70;74.20
47546;DHT22;50104;52.002;4.688;2023-06-22T21:51:43;20.60;74.50
47546;DHT22;50104;52.002;4.688;2023-06-22T21:56:43;20.50;74.60
47546;DHT22;50104;52.002;4.688;2023-06-22T22:01:44;20.40;74.60
47546;DHT22;50104;52.002;4.688;2023-06-22T22:06:45;20.40;74.80
47546;DHT22;50104;52.002;4.688;2023-06-22T22:11:51;20.30;75.00
47546;DHT22;50104;52.002;4.688;2023-06-22T22:16:51;20.20;75.80
47546;DHT22;50104;52.002;4.688;2023-06-22T22:21:52;20.10;75.80
47546;DHT22;50104;52.002;4.688;2023-06-22T22:26:53;20.00;75.70
47546;DHT22;50104;52.002;4.688;2023-06-22T22:31:54;19.90;75.60
47546;DHT22;50104;52.002;4.688;2023-06-22T22:36:55;19.80;75.60
47546;DHT22;50104;52.002;4.688;2023-06-22T22:41:56;19.80;75.80
47546;DHT22;50104;52.002;4.688;2023-06-22T22:46:58;19.70;76.00
47546;DHT22;50104;52.002;4.688;2023-06-22T22:51:59;19.60;76.40
47546;DHT22;50104;52.002;4.688;2023-06-22T22:57:00;19.50;76.60
47546;DHT22;50104;52.002;4.688;2023-06-22T23:02:00;19.40;76.80
47546;DHT22;50104;52.002;4.688;2023-06-22T23:07:01;19.40;77.00
47546;DHT22;50104;52.002;4.688;2023-06-22T23:12:02;19.30;77.10
47546;DHT22;50104;52.002;4.688;2023-06-22T23:17:03;19.20;77.20
47546;DHT22;50104;52.002;4.688;2023-06-22T23:22:04;19.10;77.40
47546;DHT22;50104;52.002;4.688;2023-06-22T23:27:06;19.10;77.60
47546;DHT22;50104;52.002;4.688;2023-06-22T23:32:14;19.00;77.50
47546;DHT22;50104;52.002;4.688;2023-06-22T23:37:15;18.90;77.80
47546;DHT22;50104;52.002;4.688;2023-06-22T23:42:17;18.90;77.70
47546;DHT22;50104;52.002;4.688;2023-06-22T23:47:17;18.80;77.90
47546;DHT22;50104;52.002;4.688;2023-06-22T23:52:18;18.70;78.00
47546;DHT22;50104;52.002;4.688;2023-06-22T23:57:19;18.70;78.30
